createdAt,value
2018-07-17T00:00:35.922Z,6.60
2018-07-17T00:01:35.909Z,6.40
2018-07-17T00:02:35.896Z,6.20
2018-07-17T00:03:36.085Z,5.50
2018-07-17T00:04:35.879Z,5.80
2018-07-17T00:05:35.870Z,5.60
2018-07-17T00:06:35.850Z,5.40
2018-07-17T00:07:35.837Z,5.70
2018-07-17T00:08:35.827Z,5.50
2018-07-17T00:09:35.891Z,5.40
2018-07-17T00:10:35.804Z,5.40
2018-07-17T00:11:35.790Z,5.80
2018-07-17T00:12:35.811Z,5.80
2018-07-17T00:13:35.764Z,5.50
2018-07-17T00:14:35.754Z,5.80
2018-07-17T00:15:35.753Z,5.30
2018-07-17T00:16:35.730Z,5.30
2018-07-17T00:17:35.725Z,5.40
2018-07-17T00:18:35.704Z,5.70
2018-07-17T00:19:35.697Z,5.20
2018-07-17T00:20:35.681Z,5.60
2018-07-17T00:21:35.670Z,5.70
2018-07-17T00:22:35.659Z,5.80
2018-07-17T00:23:35.651Z,5.50
2018-07-17T00:24:35.634Z,5.80
2018-07-17T00:25:35.620Z,5.30
2018-07-17T00:26:35.609Z,5.70
2018-07-17T00:27:35.596Z,5.80
2018-07-17T00:28:35.586Z,5.50
2018-07-17T00:29:35.571Z,5.40
2018-07-17T00:30:35.560Z,5.60
2018-07-17T00:31:35.549Z,5.30
2018-07-17T00:32:35.536Z,5.40
2018-07-17T00:33:35.523Z,6.00
2018-07-17T00:34:35.512Z,5.10
2018-07-17T00:35:35.499Z,5.50
2018-07-17T00:36:35.495Z,5.50
2018-07-17T00:37:35.477Z,5.80
2018-07-17T00:38:35.470Z,5.40
2018-07-17T00:39:35.449Z,5.30
2018-07-17T00:40:35.437Z,5.60
2018-07-17T00:41:35.424Z,5.70
2018-07-17T00:42:35.413Z,5.60
2018-07-17T00:43:35.400Z,6.30
2018-07-17T00:44:35.386Z,6.00
2018-07-17T00:45:35.378Z,5.80
2018-07-17T00:46:35.414Z,5.90
2018-07-17T00:47:35.352Z,6.10
2018-07-17T00:48:35.339Z,6.00
2018-07-17T00:49:35.325Z,6.00
2018-07-17T00:50:35.314Z,5.90
2018-07-17T00:51:35.308Z,6.20
2018-07-17T00:52:35.290Z,5.90
2018-07-17T00:53:35.284Z,5.60
2018-07-17T00:54:35.264Z,5.80
2018-07-17T00:55:35.294Z,5.90
2018-07-17T00:56:35.241Z,5.80
2018-07-17T00:57:35.234Z,5.90
2018-07-17T00:58:35.215Z,6.00
2018-07-17T00:59:35.336Z,6.00
2018-07-17T01:00:35.190Z,5.80
2018-07-17T01:01:35.178Z,6.10
2018-07-17T01:02:35.177Z,5.80
2018-07-17T01:03:35.153Z,5.40
2018-07-17T01:04:35.143Z,6.00
2018-07-17T01:05:35.128Z,6.10
2018-07-17T01:06:35.116Z,6.40
2018-07-17T01:07:35.104Z,5.90
2018-07-17T01:08:35.092Z,6.00
2018-07-17T01:09:35.077Z,5.70
2018-07-17T01:10:35.067Z,5.30
2018-07-17T01:11:35.061Z,6.10
2018-07-17T01:12:35.043Z,5.60
2018-07-17T01:13:35.028Z,5.60
2018-07-17T01:14:35.015Z,5.60
2018-07-17T01:15:35.012Z,6.20
2018-07-17T01:16:34.995Z,5.90
2018-07-17T01:17:34.979Z,5.90
2018-07-17T01:18:34.972Z,6.00
2018-07-17T01:19:34.954Z,6.20
2018-07-17T01:20:34.942Z,5.80
2018-07-17T01:21:34.929Z,6.20
2018-07-17T01:22:34.916Z,5.80
2018-07-17T01:23:34.910Z,6.30
2018-07-17T01:24:34.896Z,5.70
2018-07-17T01:25:34.880Z,6.00
2018-07-17T01:26:34.866Z,5.90
2018-07-17T01:27:34.852Z,5.90
2018-07-17T01:28:34.853Z,6.50
2018-07-17T01:29:34.828Z,6.00
2018-07-17T01:30:34.818Z,6.20
2018-07-17T01:31:34.801Z,5.80
2018-07-17T01:32:34.791Z,6.20
2018-07-17T01:33:34.775Z,6.60
2018-07-17T01:34:34.766Z,6.30
2018-07-17T01:35:34.756Z,6.00
2018-07-17T01:36:34.740Z,6.30
2018-07-17T01:37:34.726Z,6.10
2018-07-17T01:38:34.785Z,6.50
2018-07-17T01:39:34.711Z,6.10
2018-07-17T01:40:34.697Z,6.50
2018-07-17T01:41:34.678Z,5.80
2018-07-17T01:42:34.864Z,5.90
2018-07-17T01:43:34.651Z,5.90
2018-07-17T01:44:34.636Z,5.80
2018-07-17T01:45:34.625Z,6.10
2018-07-17T01:46:34.612Z,6.10
2018-07-17T01:47:34.600Z,6.20
2018-07-17T01:48:34.586Z,6.60
2018-07-17T01:49:34.573Z,6.10
2018-07-17T01:50:34.561Z,6.10
2018-07-17T01:51:34.553Z,6.30
2018-07-17T01:52:34.539Z,5.90
2018-07-17T01:53:34.522Z,5.80
2018-07-17T01:54:34.513Z,6.00
2018-07-17T01:55:34.495Z,6.20
2018-07-17T01:56:34.485Z,5.90
2018-07-17T01:57:34.472Z,6.20
2018-07-17T01:58:34.606Z,6.20
2018-07-17T01:59:34.453Z,6.20
2018-07-17T02:00:34.431Z,6.00
2018-07-17T02:01:34.418Z,6.30
2018-07-17T02:02:34.406Z,5.90
2018-07-17T02:03:34.392Z,5.70
2018-07-17T02:04:34.383Z,6.00
2018-07-17T02:05:34.365Z,6.10
2018-07-17T02:06:34.353Z,6.10
2018-07-17T02:07:34.342Z,5.90
2018-07-17T02:08:34.327Z,6.20
2018-07-17T02:09:34.314Z,6.40
2018-07-17T02:10:34.309Z,6.40
2018-07-17T02:11:34.291Z,5.60
2018-07-17T02:12:34.279Z,6.10
2018-07-17T02:13:34.260Z,6.10
2018-07-17T02:14:34.249Z,6.10
2018-07-17T02:15:34.236Z,6.00
2018-07-17T02:16:34.223Z,6.50
2018-07-17T02:17:34.210Z,6.40
2018-07-17T02:18:34.196Z,6.60
2018-07-17T02:19:34.185Z,6.30
2018-07-17T02:20:34.171Z,6.60
2018-07-17T02:21:34.164Z,6.90
2018-07-17T02:22:34.295Z,7.00
2018-07-17T02:23:34.132Z,6.30
2018-07-17T02:24:34.119Z,6.40
2018-07-17T02:25:34.138Z,6.30
2018-07-17T02:26:34.092Z,6.10
2018-07-17T02:27:34.081Z,7.00
2018-07-17T02:28:34.069Z,6.50
2018-07-17T02:29:34.057Z,6.30
2018-07-17T02:30:34.040Z,6.00
2018-07-17T02:31:34.026Z,7.30
2018-07-17T02:32:34.016Z,6.50
2018-07-17T02:33:34.000Z,6.60
2018-07-17T02:34:33.987Z,6.60
2018-07-17T02:35:33.978Z,6.70
2018-07-17T02:36:33.966Z,6.50
2018-07-17T02:37:33.950Z,6.60
2018-07-17T02:38:33.956Z,6.50
2018-07-17T02:39:33.920Z,6.50
2018-07-17T02:40:33.910Z,6.70
2018-07-17T02:41:33.906Z,6.50
2018-07-17T02:42:33.886Z,6.60
2018-07-17T02:43:33.869Z,6.60
2018-07-17T02:44:33.856Z,6.10
2018-07-17T02:45:33.840Z,6.60
2018-07-17T02:46:33.827Z,6.20
2018-07-17T02:47:33.817Z,6.80
2018-07-17T02:48:33.803Z,6.40
2018-07-17T02:49:33.790Z,6.60
2018-07-17T02:50:33.777Z,6.20
2018-07-17T02:51:33.767Z,6.10
2018-07-17T02:52:33.752Z,6.50
2018-07-17T02:53:33.744Z,6.30
2018-07-17T02:54:33.725Z,6.30
2018-07-17T02:55:33.711Z,6.20
2018-07-17T02:56:33.725Z,6.90
2018-07-17T02:57:33.684Z,6.50
2018-07-17T02:58:33.676Z,6.40
2018-07-17T02:59:33.662Z,6.50
2018-07-17T03:00:33.644Z,6.20
2018-07-17T03:01:33.634Z,6.20
2018-07-17T03:02:33.626Z,6.30
2018-07-17T03:03:33.613Z,6.30
2018-07-17T03:04:33.592Z,6.40
2018-07-17T03:05:33.578Z,5.80
2018-07-17T03:06:33.570Z,6.20
2018-07-17T03:07:33.561Z,6.20
2018-07-17T03:08:33.538Z,6.10
2018-07-17T03:09:33.524Z,6.50
2018-07-17T03:10:33.515Z,6.20
2018-07-17T03:11:33.512Z,6.20
2018-07-17T03:12:33.485Z,6.30
2018-07-17T03:13:33.471Z,5.90
2018-07-17T03:14:33.462Z,6.60
2018-07-17T03:15:33.445Z,5.80
2018-07-17T03:16:33.433Z,6.00
2018-07-17T03:17:33.417Z,6.60
2018-07-17T03:18:33.404Z,6.00
2018-07-17T03:19:33.399Z,6.40
2018-07-17T03:20:33.387Z,6.00
2018-07-17T03:21:33.365Z,6.50
2018-07-17T03:22:33.349Z,6.60
2018-07-17T03:23:33.342Z,6.70
2018-07-17T03:24:33.377Z,6.50
2018-07-17T03:25:33.318Z,6.40
2018-07-17T03:26:33.297Z,7.00
2018-07-17T03:27:34.701Z,6.70
2018-07-17T03:28:33.270Z,6.00
2018-07-17T03:29:33.264Z,6.40
2018-07-17T03:30:33.244Z,6.80
2018-07-17T03:31:33.230Z,6.40
2018-07-17T03:32:33.216Z,6.50
2018-07-17T03:33:33.204Z,6.60
2018-07-17T03:34:33.198Z,6.70
2018-07-17T03:35:33.178Z,6.50
2018-07-17T03:36:33.211Z,6.90
2018-07-17T03:37:35.770Z,6.40
2018-07-17T03:38:33.135Z,6.80
2018-07-17T03:43:50.980Z,6.70
2018-07-17T03:44:50.966Z,7.00
2018-07-17T03:45:50.952Z,6.60
2018-07-17T03:46:50.941Z,6.80
2018-07-17T03:47:50.925Z,7.70
2018-07-17T03:48:50.918Z,6.80
2018-07-17T03:49:50.904Z,6.80
2018-07-17T03:50:50.895Z,7.30
2018-07-17T03:51:50.878Z,6.90
2018-07-17T03:52:50.866Z,7.10
2018-07-17T03:53:50.875Z,7.00
2018-07-17T03:54:50.831Z,7.20
2018-07-17T03:55:50.815Z,6.90
2018-07-17T03:56:50.801Z,7.50
2018-07-17T03:57:50.824Z,7.90
2018-07-17T03:58:50.773Z,7.00
2018-07-17T03:59:50.773Z,6.70
2018-07-17T04:00:50.751Z,6.90
2018-07-17T04:01:50.732Z,7.60
2018-07-17T04:02:50.805Z,7.20
2018-07-17T04:03:50.705Z,7.20
2018-07-17T04:04:50.692Z,7.30
2018-07-17T04:05:50.678Z,7.00
2018-07-17T04:06:50.676Z,7.20
2018-07-17T04:07:50.652Z,6.90
2018-07-17T04:08:50.646Z,6.70
2018-07-17T04:09:50.623Z,7.40
2018-07-17T04:10:50.610Z,7.10
2018-07-17T04:11:50.596Z,7.40
2018-07-17T04:12:50.583Z,7.50
2018-07-17T04:13:50.579Z,6.80
2018-07-17T04:14:50.554Z,7.60
2018-07-17T04:15:50.543Z,7.20
2018-07-17T04:16:50.529Z,7.50
2018-07-17T04:17:50.514Z,7.30
2018-07-17T04:18:50.502Z,7.40
2018-07-17T04:19:50.490Z,7.10
2018-07-17T04:20:50.477Z,7.00
2018-07-17T04:21:50.469Z,7.10
2018-07-17T04:22:50.450Z,7.90
2018-07-17T04:23:50.434Z,6.90
2018-07-17T04:24:50.423Z,7.60
2018-07-17T04:25:50.408Z,7.30
2018-07-17T04:26:50.393Z,7.70
2018-07-17T04:27:50.384Z,7.60
2018-07-17T04:28:50.368Z,7.60
2018-07-17T04:29:50.422Z,7.40
2018-07-17T04:30:50.443Z,7.90
2018-07-17T04:31:50.357Z,7.00
2018-07-17T04:32:50.313Z,7.10
2018-07-17T04:33:50.300Z,7.00
2018-07-17T04:34:50.289Z,7.50
2018-07-17T04:35:50.309Z,7.30
2018-07-17T04:36:50.261Z,7.30
2018-07-17T04:37:50.246Z,6.80
2018-07-17T04:38:50.234Z,7.00
2018-07-17T04:39:50.220Z,6.90
2018-07-17T04:40:50.213Z,7.10
2018-07-17T04:41:50.192Z,7.90
2018-07-17T04:42:50.180Z,7.40
2018-07-17T04:43:50.168Z,7.30
2018-07-17T04:44:50.153Z,7.30
2018-07-17T04:45:50.139Z,7.10
2018-07-17T04:46:50.287Z,6.70
2018-07-17T04:47:50.115Z,7.20
2018-07-17T04:48:50.104Z,8.10
2018-07-17T04:49:50.087Z,7.20
2018-07-17T04:50:50.072Z,6.90
2018-07-17T04:51:50.060Z,7.50
2018-07-17T04:52:50.056Z,7.60
2018-07-17T04:53:50.041Z,8.10
2018-07-17T04:54:50.020Z,7.30
2018-07-17T04:55:50.008Z,7.40
2018-07-17T04:56:49.993Z,7.80
2018-07-17T04:57:49.980Z,8.10
2018-07-17T04:58:49.966Z,7.60
2018-07-17T04:59:49.955Z,8.00
2018-07-17T05:00:49.940Z,8.20
2018-07-17T05:01:49.939Z,8.00
2018-07-17T05:02:49.915Z,8.20
2018-07-17T05:03:49.901Z,7.60
2018-07-17T05:04:49.890Z,7.40
2018-07-17T05:05:49.874Z,11.20
2018-07-17T05:06:49.864Z,8.20
2018-07-17T05:07:49.849Z,8.00
2018-07-17T05:08:49.850Z,7.70
2018-07-17T05:09:49.823Z,7.40
2018-07-17T05:10:49.823Z,8.20
2018-07-17T05:11:49.796Z,7.90
2018-07-17T05:12:49.788Z,8.00
2018-07-17T05:13:49.769Z,7.80
2018-07-17T05:14:49.755Z,7.90
2018-07-17T05:15:49.743Z,8.20
2018-07-17T05:16:49.737Z,7.90
2018-07-17T05:17:49.714Z,7.60
2018-07-17T05:18:49.702Z,7.70
2018-07-17T05:19:49.704Z,7.90
2018-07-17T05:20:49.676Z,8.80
2018-07-17T05:21:49.665Z,8.00
2018-07-17T05:22:49.675Z,8.20
2018-07-17T05:23:49.637Z,7.90
2018-07-17T05:24:49.625Z,8.30
2018-07-17T05:25:49.612Z,8.50
2018-07-17T05:26:49.598Z,8.20
2018-07-17T05:27:49.585Z,7.90
2018-07-17T05:28:49.599Z,8.30
2018-07-17T05:29:49.560Z,8.20
2018-07-17T05:30:49.547Z,7.80
2018-07-17T05:31:49.536Z,8.30
2018-07-17T05:32:49.522Z,8.10
2018-07-17T05:33:49.508Z,8.00
2018-07-17T05:34:49.511Z,7.70
2018-07-17T05:35:49.486Z,8.50
2018-07-17T05:36:49.470Z,8.20
2018-07-17T05:37:49.457Z,8.00
2018-07-17T05:38:49.443Z,8.30
2018-07-17T05:39:49.433Z,8.30
2018-07-17T05:40:49.420Z,8.60
2018-07-17T05:41:49.407Z,7.90
2018-07-17T05:42:49.393Z,8.10
2018-07-17T05:43:49.385Z,7.40
2018-07-17T05:44:49.369Z,7.30
2018-07-17T05:45:49.407Z,8.10
2018-07-17T05:46:49.351Z,7.40
2018-07-17T05:47:49.331Z,7.70
2018-07-17T05:48:49.329Z,7.40
2018-07-17T05:49:49.321Z,7.50
2018-07-17T05:50:49.305Z,7.90
2018-07-17T05:51:49.309Z,7.40
2018-07-17T05:52:49.277Z,7.10
2018-07-17T05:53:49.264Z,7.00
2018-07-17T05:54:49.256Z,7.20
2018-07-17T05:55:49.248Z,7.20
2018-07-17T05:56:49.240Z,6.80
2018-07-17T05:57:49.229Z,7.00
2018-07-17T05:58:49.224Z,7.00
2018-07-17T05:59:49.219Z,6.90
2018-07-17T06:00:49.203Z,6.80
2018-07-17T06:01:49.199Z,6.80
2018-07-17T06:02:49.187Z,7.20
2018-07-17T06:03:49.183Z,7.00
2018-07-17T06:04:49.175Z,6.40
2018-07-17T06:05:49.165Z,6.60
2018-07-17T06:06:49.163Z,6.80
2018-07-17T06:07:49.153Z,6.60
2018-07-17T06:08:49.149Z,6.30
2018-07-17T06:09:49.143Z,6.20
2018-07-17T06:10:49.145Z,6.90
2018-07-17T06:11:49.133Z,6.60
2018-07-17T06:12:49.126Z,6.50
2018-07-17T06:13:49.124Z,6.00
2018-07-17T06:14:49.128Z,6.30
2018-07-17T06:15:49.114Z,5.90
2018-07-17T06:16:49.118Z,6.20
2018-07-17T06:17:49.105Z,6.40
2018-07-17T06:18:49.119Z,6.40
2018-07-17T06:19:49.200Z,6.70
2018-07-17T06:20:49.096Z,6.60
2018-07-17T06:21:49.095Z,6.20
2018-07-17T06:22:49.092Z,5.90
2018-07-17T06:23:49.089Z,5.90
2018-07-17T06:24:49.093Z,7.50
2018-07-17T06:25:49.080Z,7.70
2018-07-17T06:26:49.081Z,7.10
2018-07-17T06:27:49.082Z,7.10
2018-07-17T06:28:49.081Z,6.80
2018-07-17T06:29:49.073Z,7.00
2018-07-17T06:30:49.072Z,6.90
2018-07-17T06:31:49.091Z,6.70
2018-07-17T06:32:49.085Z,6.60
2018-07-17T06:33:49.082Z,6.30
2018-07-17T06:34:49.071Z,6.10
2018-07-17T06:35:49.071Z,5.60
2018-07-17T06:36:49.072Z,5.60
2018-07-17T06:37:49.066Z,6.00
2018-07-17T06:38:49.099Z,6.20
2018-07-17T06:39:49.075Z,5.80
2018-07-17T06:40:49.065Z,6.00
2018-07-17T06:41:49.061Z,5.50
2018-07-17T06:42:49.063Z,6.10
2018-07-17T06:43:49.062Z,6.10
2018-07-17T06:44:49.066Z,5.80
2018-07-17T06:45:49.159Z,6.00
2018-07-17T06:46:49.071Z,6.80
2018-07-17T06:47:49.075Z,6.80
2018-07-17T06:48:49.066Z,6.90
2018-07-17T06:49:49.067Z,6.40
2018-07-17T06:50:49.096Z,7.00
2018-07-17T06:51:49.067Z,6.60
2018-07-17T06:52:49.069Z,6.00
2018-07-17T06:53:49.072Z,5.90
2018-07-17T06:54:49.070Z,6.20
2018-07-17T06:55:49.074Z,7.30
2018-07-17T06:56:49.080Z,7.60
2018-07-17T06:57:49.080Z,7.20
2018-07-17T06:58:49.225Z,6.00
2018-07-17T06:59:49.093Z,6.30
2018-07-17T07:00:49.089Z,6.10
2018-07-17T07:01:49.081Z,6.00
2018-07-17T07:02:49.082Z,6.00
2018-07-17T07:03:49.083Z,6.00
2018-07-17T07:04:49.092Z,5.90
2018-07-17T07:05:49.099Z,5.70
2018-07-17T07:06:49.101Z,6.10
2018-07-17T07:07:49.102Z,5.90
2018-07-17T07:08:49.093Z,5.50
2018-07-17T07:09:49.096Z,5.60
2018-07-17T07:10:49.103Z,5.60
2018-07-17T07:11:49.099Z,5.60
2018-07-17T07:12:49.098Z,6.30
2018-07-17T07:13:49.110Z,6.20
2018-07-17T07:14:49.108Z,5.80
2018-07-17T07:15:49.163Z,5.90
2018-07-17T07:16:49.103Z,5.60
2018-07-17T07:17:49.102Z,5.70
2018-07-17T07:18:49.105Z,5.50
2018-07-17T07:19:49.107Z,5.90
2018-07-17T07:20:49.109Z,5.80
2018-07-17T07:21:49.108Z,6.30
2018-07-17T07:22:49.111Z,5.70
2018-07-17T07:23:49.118Z,5.70
2018-07-17T07:24:49.115Z,5.70
2018-07-17T07:25:49.121Z,5.90
2018-07-17T07:26:49.116Z,5.40
2018-07-17T07:27:49.114Z,5.80
2018-07-17T07:28:49.120Z,6.60
2018-07-17T07:29:49.116Z,8.00
2018-07-17T07:30:49.159Z,8.00
2018-07-17T07:31:49.123Z,6.50
2018-07-17T07:32:49.121Z,6.10
2018-07-17T07:33:49.131Z,6.50
2018-07-17T07:34:49.329Z,6.90
2018-07-17T07:35:49.131Z,6.30
2018-07-17T07:36:52.557Z,6.30
2018-07-17T07:37:49.125Z,5.70
2018-07-17T07:38:49.126Z,5.60
2018-07-17T07:39:49.141Z,6.10
2018-07-17T07:40:49.133Z,5.60
2018-07-17T07:41:49.125Z,7.00
2018-07-17T07:42:49.200Z,5.80
2018-07-17T07:43:49.122Z,5.30
2018-07-17T07:44:49.119Z,5.50
2018-07-17T07:45:49.167Z,5.70
2018-07-17T07:46:49.115Z,5.30
2018-07-17T07:47:49.115Z,5.70
2018-07-17T07:48:49.113Z,5.50
2018-07-17T07:49:50.123Z,5.80
2018-07-17T07:50:52.945Z,6.40
2018-07-17T07:51:49.115Z,5.60
2018-07-17T07:52:49.102Z,5.90
2018-07-17T07:53:49.101Z,6.20
2018-07-17T07:54:49.097Z,6.20
2018-07-17T07:55:49.102Z,6.20
2018-07-17T07:56:49.103Z,6.60
2018-07-17T07:57:49.089Z,7.00
2018-07-17T07:58:49.089Z,7.00
2018-07-17T07:59:49.084Z,6.90
2018-07-17T08:00:49.083Z,7.00
2018-07-17T08:01:49.076Z,6.60
2018-07-17T08:02:49.074Z,7.20
2018-07-17T08:03:49.102Z,7.30
2018-07-17T08:04:49.077Z,7.20
2018-07-17T08:05:49.064Z,7.20
2018-07-17T08:06:49.059Z,6.80
2018-07-17T08:07:49.056Z,7.90
2018-07-17T08:08:49.052Z,7.80
2018-07-17T08:09:49.053Z,8.20
2018-07-17T08:10:49.065Z,7.10
2018-07-17T08:11:49.059Z,7.00
2018-07-17T08:12:49.048Z,7.00
2018-07-17T08:13:49.045Z,6.90
2018-07-17T08:14:49.039Z,6.90
2018-07-17T08:15:49.034Z,7.00
2018-07-17T08:16:49.129Z,6.80
2018-07-17T08:17:49.047Z,7.90
2018-07-17T08:18:49.024Z,7.50
2018-07-17T08:19:49.023Z,8.10
2018-07-17T08:20:49.020Z,7.10
2018-07-17T08:21:49.020Z,6.70
2018-07-17T08:22:49.011Z,6.40
2018-07-17T08:23:49.007Z,6.60
2018-07-17T08:24:49.002Z,6.30
2018-07-17T08:25:49.000Z,6.60
2018-07-17T08:26:48.996Z,6.50
2018-07-17T08:27:48.988Z,5.90
2018-07-17T08:28:48.987Z,6.30
2018-07-17T08:29:49.020Z,6.50
2018-07-17T08:30:48.981Z,6.00
2018-07-17T08:31:48.985Z,6.40
2018-07-17T08:32:49.064Z,6.80
2018-07-17T08:33:48.981Z,6.40
2018-07-17T08:34:48.958Z,6.20
2018-07-17T08:35:49.035Z,6.20
2018-07-17T08:36:48.948Z,5.80
2018-07-17T08:37:48.946Z,5.70
2018-07-17T08:38:48.938Z,5.70
2018-07-17T08:39:48.934Z,5.10
2018-07-17T08:40:49.030Z,5.50
2018-07-17T08:41:48.923Z,5.20
2018-07-17T08:42:48.918Z,6.00
2018-07-17T08:43:48.914Z,6.60
2018-07-17T08:44:48.908Z,6.20
2018-07-17T08:45:48.901Z,6.10
2018-07-17T08:46:48.896Z,6.20
2018-07-17T08:47:48.898Z,6.80
2018-07-17T08:48:48.888Z,5.70
2018-07-17T08:49:48.882Z,6.30
2018-07-17T08:50:48.874Z,6.20
2018-07-17T08:51:48.878Z,6.10
2018-07-17T08:52:48.865Z,6.10
2018-07-17T08:53:48.866Z,6.90
2018-07-17T08:54:48.854Z,6.30
2018-07-17T08:55:48.849Z,5.80
2018-07-17T08:56:48.845Z,6.70
2018-07-17T08:57:48.837Z,6.50
2018-07-17T08:58:48.833Z,7.00
2018-07-17T08:59:48.827Z,5.90
2018-07-17T09:00:48.824Z,6.50
2018-07-17T09:01:48.818Z,7.10
2018-07-17T09:02:48.812Z,6.40
2018-07-17T09:03:48.806Z,6.20
2018-07-17T09:04:48.816Z,6.40
2018-07-17T09:05:48.840Z,6.20
2018-07-17T09:06:48.801Z,6.50
2018-07-17T09:07:48.793Z,6.20
2018-07-17T09:08:48.785Z,5.80
2018-07-17T09:09:48.852Z,6.20
2018-07-17T09:10:48.773Z,6.20
2018-07-17T09:11:48.774Z,6.40
2018-07-17T09:12:48.774Z,5.20
2018-07-17T09:13:48.759Z,6.10
2018-07-17T09:14:48.759Z,6.20
2018-07-17T09:15:48.757Z,6.30
2018-07-17T09:16:48.744Z,6.00
2018-07-17T09:17:48.739Z,5.80
2018-07-17T09:18:48.734Z,5.90
2018-07-17T09:19:48.738Z,6.50
2018-07-17T09:20:48.727Z,6.00
2018-07-17T09:21:48.727Z,5.70
2018-07-17T09:22:48.723Z,5.80
2018-07-17T09:23:48.715Z,5.90
2018-07-17T09:24:48.709Z,6.50
2018-07-17T09:25:48.709Z,6.20
2018-07-17T09:26:48.706Z,6.00
2018-07-17T09:27:48.695Z,6.20
2018-07-17T09:28:48.689Z,5.50
2018-07-17T09:29:48.687Z,6.30
2018-07-17T09:30:48.693Z,6.50
2018-07-17T09:31:48.679Z,5.60
2018-07-17T09:32:48.681Z,5.60
2018-07-17T09:33:48.671Z,5.00
2018-07-17T09:34:48.678Z,5.40
2018-07-17T09:35:48.662Z,5.40
2018-07-17T09:36:48.661Z,5.40
2018-07-17T09:37:48.657Z,5.50
2018-07-17T09:38:48.659Z,5.40
2018-07-17T09:39:48.648Z,6.00
2018-07-17T09:40:48.745Z,5.10
2018-07-17T09:41:48.642Z,5.30
2018-07-17T09:42:48.637Z,5.40
2018-07-17T09:43:48.683Z,5.10
2018-07-17T09:44:48.636Z,4.80
2018-07-17T09:45:48.627Z,5.60
2018-07-17T09:46:48.626Z,5.80
2018-07-17T09:47:48.623Z,5.80
2018-07-17T09:48:48.624Z,5.80
2018-07-17T09:49:48.627Z,5.20
2018-07-17T09:50:48.614Z,5.00
2018-07-17T09:51:48.612Z,4.90
2018-07-17T09:52:48.610Z,5.20
2018-07-17T09:53:48.614Z,4.70
2018-07-17T09:54:48.606Z,5.00
2018-07-17T09:55:48.604Z,5.40
2018-07-17T09:56:48.601Z,4.90
2018-07-17T09:57:48.605Z,5.40
2018-07-17T09:58:48.612Z,5.80
2018-07-17T09:59:48.597Z,5.30
2018-07-17T10:00:48.592Z,5.40
2018-07-17T10:01:48.602Z,5.40
2018-07-17T10:02:48.595Z,5.00
2018-07-17T10:03:48.589Z,5.40
2018-07-17T10:04:48.589Z,5.80
2018-07-17T10:05:48.582Z,5.20
2018-07-17T10:06:48.589Z,5.40
2018-07-17T10:07:48.585Z,5.70
2018-07-17T10:08:48.585Z,5.20
2018-07-17T10:09:48.591Z,4.70
2018-07-17T10:10:48.581Z,4.70
2018-07-17T10:11:48.580Z,4.50
2018-07-17T10:12:48.591Z,3.60
2018-07-17T10:13:48.583Z,3.80
2018-07-17T10:14:48.592Z,3.80
2018-07-17T10:15:48.586Z,3.00
2018-07-17T10:16:48.595Z,3.30
2018-07-17T10:17:48.587Z,3.80
2018-07-17T10:18:48.598Z,4.00
2018-07-17T10:19:48.636Z,3.40
2018-07-17T10:20:48.597Z,3.60
2018-07-17T10:21:48.605Z,3.70
2018-07-17T10:22:48.602Z,3.50
2018-07-17T10:23:48.607Z,3.70
2018-07-17T10:24:48.610Z,3.60
2018-07-17T10:25:48.612Z,3.90
2018-07-17T10:26:48.615Z,3.70
2018-07-17T10:27:48.627Z,3.90
2018-07-17T10:28:48.625Z,3.60
2018-07-17T10:29:48.624Z,3.40
2018-07-17T10:30:48.634Z,3.40
2018-07-17T10:31:48.629Z,3.00
2018-07-17T10:32:48.636Z,3.10
2018-07-17T10:33:48.637Z,3.90
2018-07-17T10:34:48.640Z,3.90
2018-07-17T10:35:48.647Z,3.50
2018-07-17T10:36:48.650Z,3.80
2018-07-17T10:37:48.653Z,4.00
2018-07-17T10:38:48.672Z,4.00
2018-07-17T10:39:48.666Z,3.50
2018-07-17T10:40:48.672Z,3.60
2018-07-17T10:41:48.680Z,3.60
2018-07-17T10:42:48.681Z,3.40
2018-07-17T10:43:48.692Z,3.40
2018-07-17T10:44:48.705Z,3.40
2018-07-17T10:45:48.704Z,3.70
2018-07-17T10:46:48.720Z,3.40
2018-07-17T10:47:48.710Z,3.90
2018-07-17T10:48:48.725Z,3.80
2018-07-17T10:49:48.722Z,3.60
2018-07-17T10:50:48.730Z,3.50
2018-07-17T10:51:48.737Z,3.80
2018-07-17T10:52:48.748Z,4.10
2018-07-17T10:53:48.749Z,3.50
2018-07-17T10:54:48.762Z,3.50
2018-07-17T10:55:48.771Z,3.40
2018-07-17T10:56:48.803Z,3.50
2018-07-17T10:57:48.794Z,3.50
2018-07-17T10:58:48.787Z,3.60
2018-07-17T10:59:48.803Z,3.80
2018-07-17T11:00:48.852Z,3.60
2018-07-17T11:01:48.809Z,3.20
2018-07-17T11:02:48.840Z,3.50
2018-07-17T11:03:48.825Z,3.90
2018-07-17T11:04:48.842Z,4.30
2018-07-17T11:05:48.848Z,4.20
2018-07-17T11:06:48.847Z,3.60
2018-07-17T11:07:48.870Z,3.60
2018-07-17T11:08:48.909Z,3.50
2018-07-17T11:09:48.880Z,3.60
2018-07-17T11:10:48.880Z,3.80
2018-07-17T11:11:48.888Z,3.40
2018-07-17T11:12:48.897Z,3.90
2018-07-17T11:13:48.900Z,3.40
2018-07-17T11:14:48.918Z,3.50
2018-07-17T11:15:48.918Z,3.50
2018-07-17T11:16:48.935Z,3.30
2018-07-17T11:17:48.979Z,3.40
2018-07-17T11:18:48.951Z,3.50
2018-07-17T11:19:48.954Z,3.40
2018-07-17T11:20:48.963Z,3.60
2018-07-17T11:21:48.975Z,3.70
2018-07-17T11:22:48.979Z,3.10
2018-07-17T11:23:48.988Z,3.30
2018-07-17T11:24:49.011Z,3.30
2018-07-17T11:25:49.004Z,3.50
2018-07-17T11:26:49.021Z,3.60
2018-07-17T11:27:49.027Z,3.20
2018-07-17T11:28:49.136Z,3.20
2018-07-17T11:29:49.034Z,3.30
2018-07-17T11:30:49.044Z,3.50
2018-07-17T11:31:49.081Z,3.60
2018-07-17T11:32:49.072Z,3.40
2018-07-17T11:33:49.070Z,3.10
2018-07-17T11:34:49.079Z,3.20
2018-07-17T11:35:49.086Z,3.40
2018-07-17T11:36:49.104Z,3.10
2018-07-17T11:37:49.102Z,3.20
2018-07-17T11:38:49.150Z,3.40
2018-07-17T11:39:49.132Z,3.10
2018-07-17T11:40:49.133Z,3.40
2018-07-17T11:41:49.186Z,3.10
2018-07-17T11:42:49.147Z,2.90
2018-07-17T11:43:49.153Z,3.10
2018-07-17T11:44:49.158Z,2.80
2018-07-17T11:45:49.177Z,2.80
2018-07-17T11:46:49.183Z,3.50
2018-07-17T11:47:49.273Z,2.90
2018-07-17T11:48:49.188Z,2.90
2018-07-17T11:49:49.199Z,3.10
2018-07-17T11:50:49.202Z,3.40
2018-07-17T11:51:49.233Z,3.10
2018-07-17T11:52:49.222Z,2.90
2018-07-17T11:53:49.238Z,3.40
2018-07-17T11:54:49.236Z,3.40
2018-07-17T11:55:49.233Z,3.20
2018-07-17T11:56:49.244Z,3.20
2018-07-17T11:57:49.247Z,3.10
2018-07-17T11:58:49.275Z,3.30
2018-07-17T11:59:49.263Z,3.40
2018-07-17T12:00:49.259Z,3.40
2018-07-17T12:01:49.260Z,3.80
2018-07-17T12:02:49.262Z,3.30
2018-07-17T12:03:49.277Z,3.60
2018-07-17T12:04:49.268Z,3.40
2018-07-17T12:05:49.282Z,3.20
2018-07-17T12:06:49.375Z,3.40
2018-07-17T12:07:49.283Z,3.70
2018-07-17T12:08:49.277Z,3.70
2018-07-17T12:09:49.279Z,3.60
2018-07-17T12:10:49.282Z,3.90
2018-07-17T12:11:49.296Z,3.50
2018-07-17T12:12:49.387Z,3.60
2018-07-17T12:13:49.281Z,4.00
2018-07-17T12:14:49.684Z,3.60
2018-07-17T12:15:49.286Z,3.10
2018-07-17T12:16:49.292Z,3.90
2018-07-17T12:17:49.286Z,3.50
2018-07-17T12:18:49.281Z,3.40
2018-07-17T12:19:49.314Z,3.60
2018-07-17T12:20:49.282Z,3.70
2018-07-17T12:21:49.282Z,3.60
2018-07-17T12:22:49.285Z,3.90
2018-07-17T12:23:49.283Z,4.30
2018-07-17T12:24:49.282Z,3.80
2018-07-17T12:25:49.289Z,4.40
2018-07-17T12:26:49.276Z,4.10
2018-07-17T12:27:49.289Z,4.30
2018-07-17T12:28:49.278Z,4.10
2018-07-17T12:29:49.273Z,3.80
2018-07-17T12:30:49.274Z,3.80
2018-07-17T12:31:49.281Z,3.90
2018-07-17T12:32:49.269Z,3.80
2018-07-17T12:33:49.272Z,4.00
2018-07-17T12:34:49.279Z,4.10
2018-07-17T12:35:49.264Z,4.20
2018-07-17T12:36:49.270Z,3.90
2018-07-17T12:37:49.259Z,4.10
2018-07-17T12:38:49.260Z,4.50
2018-07-17T12:39:49.255Z,4.80
2018-07-17T12:40:49.259Z,5.40
2018-07-17T12:41:49.259Z,5.40
2018-07-17T12:42:49.248Z,5.80
2018-07-17T12:43:49.245Z,5.80
2018-07-17T12:44:49.245Z,5.60
2018-07-17T12:45:49.241Z,5.10
2018-07-17T12:46:49.241Z,5.60
2018-07-17T12:47:49.237Z,5.40
2018-07-17T12:48:49.232Z,5.40
2018-07-17T12:49:49.262Z,5.30
2018-07-17T12:50:49.240Z,5.60
2018-07-17T12:51:49.238Z,5.70
2018-07-17T12:52:49.224Z,5.70
2018-07-17T12:53:49.224Z,5.50
2018-07-17T12:54:49.224Z,4.80
2018-07-17T12:55:49.225Z,4.60
2018-07-17T12:56:49.210Z,4.40
2018-07-17T12:57:49.209Z,4.60
2018-07-17T12:58:49.203Z,4.20
2018-07-17T12:59:49.205Z,4.30
2018-07-17T13:00:49.196Z,4.30
2018-07-17T13:01:49.193Z,4.70
2018-07-17T13:02:49.269Z,4.60
2018-07-17T13:03:49.187Z,4.90
2018-07-17T13:04:49.186Z,4.80
2018-07-17T13:05:49.192Z,4.70
2018-07-17T13:06:49.180Z,4.30
2018-07-17T13:07:49.180Z,3.80
2018-07-17T13:08:49.168Z,4.30
2018-07-17T13:09:49.168Z,4.10
2018-07-17T13:10:49.168Z,4.30
2018-07-17T13:11:49.165Z,3.80
2018-07-17T13:12:49.158Z,4.10
2018-07-17T13:13:49.161Z,4.00
2018-07-17T13:14:49.162Z,4.00
2018-07-17T13:15:49.146Z,3.90
2018-07-17T13:16:49.155Z,3.80
2018-07-17T13:17:49.201Z,3.80
2018-07-17T13:18:49.142Z,3.40
2018-07-17T13:19:49.133Z,3.70
2018-07-17T13:20:49.130Z,3.90
2018-07-17T13:21:49.123Z,3.60
2018-07-17T13:22:49.123Z,4.00